sensor_id;sensor_type;location;lat;lon;timestamp;P1;durP1;ratioP1;P2;durP2;ratioP2
33162;SDS011;29282;45.656;11.302;2023-05-07T00:01:53;6.30;;;4.25;;
33162;SDS011;29282;45.656;11.302;2023-05-07T00:04:19;9.45;;;4.70;;
33162;SDS011;29282;45.656;11.302;2023-05-07T00:06:44;5.82;;;4.05;;
33162;SDS011;29282;45.656;11.302;2023-05-07T00:09:10;5.13;;;4.15;;
33162;SDS011;29282;45.656;11.302;2023-05-07T00:11:35;8.05;;;4.63;;
33162;SDS011;29282;45.656;11.302;2023-05-07T00:14:01;8.80;;;4.97;;
33162;SDS011;29282;45.656;11.302;2023-05-07T00:16:27;6.55;;;4.93;;
33162;SDS011;29282;45.656;11.302;2023-05-07T00:18:52;9.00;;;4.85;;
33162;SDS011;29282;45.656;11.302;2023-05-07T00:21:18;6.07;;;4.47;;
33162;SDS011;29282;45.656;11.302;2023-05-07T00:23:43;7.03;;;4.90;;
33162;SDS011;29282;45.656;11.302;2023-05-07T00:26:09;6.07;;;4.55;;
33162;SDS011;29282;45.656;11.302;2023-05-07T00:28:34;6.82;;;4.93;;
33162;SDS011;29282;45.656;11.302;2023-05-07T00:31:00;5.05;;;4.40;;
33162;SDS011;29282;45.656;11.302;2023-05-07T00:33:25;6.72;;;4.45;;
33162;SDS011;29282;45.656;11.302;2023-05-07T00:35:52;7.93;;;4.72;;
33162;SDS011;29282;45.656;11.302;2023-05-07T00:38:19;5.82;;;4.93;;
33162;SDS011;29282;45.656;11.302;2023-05-07T00:40:47;6.97;;;4.50;;
33162;SDS011;29282;45.656;11.302;2023-05-07T00:43:12;7.53;;;4.78;;
33162;SDS011;29282;45.656;11.302;2023-05-07T00:45:38;6.60;;;4.93;;
33162;SDS011;29282;45.656;11.302;2023-05-07T00:48:04;6.90;;;4.50;;
33162;SDS011;29282;45.656;11.302;2023-05-07T00:50:32;5.20;;;4.43;;
33162;SDS011;29282;45.656;11.302;2023-05-07T00:52:58;4.95;;;4.45;;
33162;SDS011;29282;45.656;11.302;2023-05-07T00:55:25;4.93;;;4.30;;
33162;SDS011;29282;45.656;11.302;2023-05-07T00:57:51;5.25;;;4.80;;
33162;SDS011;29282;45.656;11.302;2023-05-07T01:00:17;5.57;;;4.32;;
33162;SDS011;29282;45.656;11.302;2023-05-07T01:02:43;6.45;;;4.50;;
33162;SDS011;29282;45.656;11.302;2023-05-07T01:05:09;5.93;;;4.90;;
33162;SDS011;29282;45.656;11.302;2023-05-07T01:07:38;5.18;;;4.53;;
33162;SDS011;29282;45.656;11.302;2023-05-07T01:10:06;7.35;;;4.20;;
33162;SDS011;29282;45.656;11.302;2023-05-07T01:12:32;5.90;;;4.57;;
33162;SDS011;29282;45.656;11.302;2023-05-07T01:14:59;7.63;;;4.80;;
33162;SDS011;29282;45.656;11.302;2023-05-07T01:17:25;5.78;;;5.20;;
33162;SDS011;29282;45.656;11.302;2023-05-07T01:19:51;6.40;;;4.97;;
33162;SDS011;29282;45.656;11.302;2023-05-07T01:22:24;6.00;;;4.47;;
33162;SDS011;29282;45.656;11.302;2023-05-07T01:24:55;5.20;;;4.68;;
33162;SDS011;29282;45.656;11.302;2023-05-07T01:27:21;5.78;;;4.18;;
33162;SDS011;29282;45.656;11.302;2023-05-07T01:29:46;5.07;;;4.47;;
33162;SDS011;29282;45.656;11.302;2023-05-07T01:32:12;5.15;;;4.35;;
33162;SDS011;29282;45.656;11.302;2023-05-07T01:34:38;6.00;;;4.45;;
33162;SDS011;29282;45.656;11.302;2023-05-07T01:37:04;6.75;;;4.70;;
33162;SDS011;29282;45.656;11.302;2023-05-07T01:39:30;5.28;;;4.60;;
33162;SDS011;29282;45.656;11.302;2023-05-07T01:41:56;5.85;;;4.35;;
33162;SDS011;29282;45.656;11.302;2023-05-07T01:44:22;5.32;;;4.50;;
33162;SDS011;29282;45.656;11.302;2023-05-07T01:46:48;6.18;;;4.75;;
33162;SDS011;29282;45.656;11.302;2023-05-07T01:49:15;6.28;;;4.40;;
33162;SDS011;29282;45.656;11.302;2023-05-07T01:51:41;6.35;;;4.75;;
33162;SDS011;29282;45.656;11.302;2023-05-07T01:54:07;5.97;;;4.68;;
33162;SDS011;29282;45.656;11.302;2023-05-07T01:56:33;7.72;;;4.70;;
33162;SDS011;29282;45.656;11.302;2023-05-07T01:58:59;4.57;;;4.18;;
33162;SDS011;29282;45.656;11.302;2023-05-07T02:01:24;6.88;;;4.97;;
33162;SDS011;29282;45.656;11.302;2023-05-07T02:03:50;4.82;;;4.40;;
33162;SDS011;29282;45.656;11.302;2023-05-07T02:06:15;6.65;;;4.43;;
33162;SDS011;29282;45.656;11.302;2023-05-07T02:08:41;8.10;;;4.50;;
33162;SDS011;29282;45.656;11.302;2023-05-07T02:11:06;5.07;;;4.57;;
33162;SDS011;29282;45.656;11.302;2023-05-07T02:13:35;4.88;;;4.47;;
33162;SDS011;29282;45.656;11.302;2023-05-07T02:16:01;4.90;;;4.22;;
33162;SDS011;29282;45.656;11.302;2023-05-07T02:18:27;5.18;;;4.47;;
33162;SDS011;29282;45.656;11.302;2023-05-07T02:20:53;4.95;;;4.45;;
33162;SDS011;29282;45.656;11.302;2023-05-07T02:23:19;6.68;;;4.55;;
33162;SDS011;29282;45.656;11.302;2023-05-07T02:25:44;4.80;;;4.25;;
33162;SDS011;29282;45.656;11.302;2023-05-07T02:28:10;5.03;;;4.15;;
33162;SDS011;29282;45.656;11.302;2023-05-07T02:30:36;5.07;;;4.57;;
33162;SDS011;29282;45.656;11.302;2023-05-07T02:33:02;4.45;;;4.05;;
33162;SDS011;29282;45.656;11.302;2023-05-07T02:35:28;4.88;;;4.35;;
33162;SDS011;29282;45.656;11.302;2023-05-07T02:37:53;5.07;;;4.43;;
33162;SDS011;29282;45.656;11.302;2023-05-07T02:40:19;4.93;;;4.43;;
33162;SDS011;29282;45.656;11.302;2023-05-07T02:42:44;5.55;;;4.32;;
33162;SDS011;29282;45.656;11.302;2023-05-07T02:45:10;4.53;;;4.10;;
33162;SDS011;29282;45.656;11.302;2023-05-07T02:47:36;4.70;;;4.28;;
33162;SDS011;29282;45.656;11.302;2023-05-07T02:50:01;6.28;;;4.97;;
33162;SDS011;29282;45.656;11.302;2023-05-07T02:52:27;5.35;;;4.85;;
33162;SDS011;29282;45.656;11.302;2023-05-07T02:54:53;5.63;;;4.50;;
33162;SDS011;29282;45.656;11.302;2023-05-07T02:57:18;6.00;;;4.53;;
33162;SDS011;29282;45.656;11.302;2023-05-07T02:59:44;4.45;;;4.00;;
33162;SDS011;29282;45.656;11.302;2023-05-07T03:02:09;5.30;;;4.30;;
33162;SDS011;29282;45.656;11.302;2023-05-07T03:04:35;4.70;;;4.25;;
33162;SDS011;29282;45.656;11.302;2023-05-07T03:07:01;5.65;;;4.68;;
33162;SDS011;29282;45.656;11.302;2023-05-07T03:09:26;4.60;;;4.22;;
33162;SDS011;29282;45.656;11.302;2023-05-07T03:11:52;4.18;;;3.78;;
33162;SDS011;29282;45.656;11.302;2023-05-07T03:14:17;5.70;;;4.55;;
33162;SDS011;29282;45.656;11.302;2023-05-07T03:16:43;6.47;;;4.35;;
33162;SDS011;29282;45.656;11.302;2023-05-07T03:19:08;4.88;;;4.47;;
33162;SDS011;29282;45.656;11.302;2023-05-07T03:21:34;5.55;;;5.05;;
33162;SDS011;29282;45.656;11.302;2023-05-07T03:24:02;4.68;;;4.28;;
33162;SDS011;29282;45.656;11.302;2023-05-07T03:26:28;4.78;;;4.20;;
33162;SDS011;29282;45.656;11.302;2023-05-07T03:28:53;4.95;;;4.45;;
33162;SDS011;29282;45.656;11.302;2023-05-07T03:31:20;5.88;;;4.40;;
33162;SDS011;29282;45.656;11.302;2023-05-07T03:33:50;5.07;;;4.55;;
33162;SDS011;29282;45.656;11.302;2023-05-07T03:36:19;4.80;;;4.40;;
33162;SDS011;29282;45.656;11.302;2023-05-07T03:38:45;5.57;;;4.18;;
33162;SDS011;29282;45.656;11.302;2023-05-07T03:41:11;5.13;;;4.50;;
33162;SDS011;29282;45.656;11.302;2023-05-07T03:43:36;5.00;;;4.50;;
33162;SDS011;29282;45.656;11.302;2023-05-07T03:46:02;4.60;;;4.07;;
33162;SDS011;29282;45.656;11.302;2023-05-07T03:48:27;5.10;;;4.50;;
33162;SDS011;29282;45.656;11.302;2023-05-07T03:50:53;4.68;;;4.22;;
33162;SDS011;29282;45.656;11.302;2023-05-07T03:53:19;5.45;;;4.30;;
33162;SDS011;29282;45.656;11.302;2023-05-07T03:55:44;4.95;;;4.45;;
33162;SDS011;29282;45.656;11.302;2023-05-07T03:58:09;4.63;;;4.13;;
33162;SDS011;29282;45.656;11.302;2023-05-07T04:00:38;5.53;;;4.43;;
33162;SDS011;29282;45.656;11.302;2023-05-07T04:03:05;5.22;;;4.40;;
33162;SDS011;29282;45.656;11.302;2023-05-07T04:05:31;4.93;;;4.43;;
33162;SDS011;29282;45.656;11.302;2023-05-07T04:07:59;5.18;;;4.68;;
33162;SDS011;29282;45.656;11.302;2023-05-07T04:10:25;5.93;;;4.95;;
33162;SDS011;29282;45.656;11.302;2023-05-07T04:12:51;4.63;;;4.22;;
33162;SDS011;29282;45.656;11.302;2023-05-07T04:15:16;5.00;;;4.60;;
33162;SDS011;29282;45.656;11.302;2023-05-07T04:17:42;4.68;;;4.20;;
33162;SDS011;29282;45.656;11.302;2023-05-07T04:20:14;5.05;;;4.55;;
33162;SDS011;29282;45.656;11.302;2023-05-07T04:22:41;5.05;;;4.55;;
33162;SDS011;29282;45.656;11.302;2023-05-07T04:25:07;4.50;;;4.10;;
33162;SDS011;29282;45.656;11.302;2023-05-07T04:27:34;5.00;;;4.60;;
33162;SDS011;29282;45.656;11.302;2023-05-07T04:30:00;5.30;;;4.80;;
33162;SDS011;29282;45.656;11.302;2023-05-07T04:32:27;5.45;;;4.95;;
33162;SDS011;29282;45.656;11.302;2023-05-07T04:34:54;4.88;;;4.47;;
33162;SDS011;29282;45.656;11.302;2023-05-07T04:37:20;4.88;;;4.38;;
33162;SDS011;29282;45.656;11.302;2023-05-07T04:39:46;4.95;;;4.55;;
33162;SDS011;29282;45.656;11.302;2023-05-07T04:42:15;5.00;;;4.50;;
33162;SDS011;29282;45.656;11.302;2023-05-07T04:44:42;4.93;;;4.38;;
33162;SDS011;29282;45.656;11.302;2023-05-07T04:47:08;4.78;;;4.35;;
33162;SDS011;29282;45.656;11.302;2023-05-07T04:49:33;5.10;;;4.60;;
33162;SDS011;29282;45.656;11.302;2023-05-07T04:52:01;4.65;;;4.25;;
33162;SDS011;29282;45.656;11.302;2023-05-07T04:54:28;4.88;;;4.45;;
33162;SDS011;29282;45.656;11.302;2023-05-07T04:56:54;6.72;;;4.40;;
33162;SDS011;29282;45.656;11.302;2023-05-07T04:59:22;5.07;;;4.55;;
33162;SDS011;29282;45.656;11.302;2023-05-07T05:01:48;5.25;;;4.75;;
33162;SDS011;29282;45.656;11.302;2023-05-07T05:04:13;4.70;;;4.30;;
33162;SDS011;29282;45.656;11.302;2023-05-07T05:06:39;4.57;;;4.18;;
33162;SDS011;29282;45.656;11.302;2023-05-07T05:09:04;4.47;;;4.07;;
33162;SDS011;29282;45.656;11.302;2023-05-07T05:11:30;4.50;;;4.10;;
33162;SDS011;29282;45.656;11.302;2023-05-07T05:13:56;4.70;;;4.30;;
33162;SDS011;29282;45.656;11.302;2023-05-07T05:16:21;4.40;;;4.00;;
33162;SDS011;29282;45.656;11.302;2023-05-07T05:18:47;4.55;;;4.15;;
33162;SDS011;29282;45.656;11.302;2023-05-07T05:21:13;4.60;;;4.25;;
33162;SDS011;29282;45.656;11.302;2023-05-07T05:23:38;4.97;;;4.38;;
33162;SDS011;29282;45.656;11.302;2023-05-07T05:26:04;4.57;;;4.18;;
33162;SDS011;29282;45.656;11.302;2023-05-07T05:28:29;4.90;;;4.43;;
33162;SDS011;29282;45.656;11.302;2023-05-07T05:30:55;5.22;;;4.55;;
33162;SDS011;29282;45.656;11.302;2023-05-07T05:33:21;5.25;;;4.38;;
33162;SDS011;29282;45.656;11.302;2023-05-07T05:35:46;4.85;;;4.45;;
33162;SDS011;29282;45.656;11.302;2023-05-07T05:38:12;5.78;;;4.80;;
33162;SDS011;29282;45.656;11.302;2023-05-07T05:40:37;5.60;;;4.63;;
33162;SDS011;29282;45.656;11.302;2023-05-07T05:43:02;5.45;;;4.75;;
33162;SDS011;29282;45.656;11.302;2023-05-07T05:45:28;4.63;;;4.22;;
33162;SDS011;29282;45.656;11.302;2023-05-07T05:47:55;4.63;;;4.10;;
33162;SDS011;29282;45.656;11.302;2023-05-07T05:50:21;4.57;;;4.18;;
33162;SDS011;29282;45.656;11.302;2023-05-07T05:52:47;4.82;;;4.38;;
33162;SDS011;29282;45.656;11.302;2023-05-07T05:55:13;4.90;;;4.50;;
33162;SDS011;29282;45.656;11.302;2023-05-07T05:57:41;5.15;;;4.50;;
33162;SDS011;29282;45.656;11.302;2023-05-07T06:00:07;4.38;;;4.07;;
33162;SDS011;29282;45.656;11.302;2023-05-07T06:02:33;4.63;;;4.22;;
33162;SDS011;29282;45.656;11.302;2023-05-07T06:04:58;5.55;;;4.28;;
33162;SDS011;29282;45.656;11.302;2023-05-07T06:07:27;4.78;;;4.30;;
33162;SDS011;29282;45.656;11.302;2023-05-07T06:09:52;4.95;;;4.25;;
33162;SDS011;29282;45.656;11.302;2023-05-07T06:12:17;4.20;;;3.80;;
33162;SDS011;29282;45.656;11.302;2023-05-07T06:14:43;4.10;;;3.80;;
33162;SDS011;29282;45.656;11.302;2023-05-07T06:17:09;5.38;;;4.88;;
33162;SDS011;29282;45.656;11.302;2023-05-07T06:19:34;5.65;;;4.47;;
33162;SDS011;29282;45.656;11.302;2023-05-07T06:22:00;4.57;;;4.18;;
33162;SDS011;29282;45.656;11.302;2023-05-07T06:24:26;4.88;;;4.38;;
33162;SDS011;29282;45.656;11.302;2023-05-07T06:26:52;4.20;;;3.90;;
33162;SDS011;29282;45.656;11.302;2023-05-07T06:29:17;4.72;;;4.32;;
33162;SDS011;29282;45.656;11.302;2023-05-07T06:31:43;5.05;;;4.55;;
33162;SDS011;29282;45.656;11.302;2023-05-07T06:34:08;5.00;;;4.53;;
33162;SDS011;29282;45.656;11.302;2023-05-07T06:36:35;4.72;;;4.32;;
33162;SDS011;29282;45.656;11.302;2023-05-07T06:39:00;4.82;;;4.43;;
33162;SDS011;29282;45.656;11.302;2023-05-07T06:41:26;4.68;;;4.28;;
33162;SDS011;29282;45.656;11.302;2023-05-07T06:43:51;4.20;;;3.80;;
33162;SDS011;29282;45.656;11.302;2023-05-07T06:46:17;4.07;;;3.78;;
33162;SDS011;29282;45.656;11.302;2023-05-07T06:48:42;5.10;;;4.32;;
33162;SDS011;29282;45.656;11.302;2023-05-07T06:51:08;4.90;;;4.22;;
33162;SDS011;29282;45.656;11.302;2023-05-07T06:53:34;4.32;;;3.90;;
33162;SDS011;29282;45.656;11.302;2023-05-07T06:56:00;4.57;;;4.18;;
33162;SDS011;29282;45.656;11.302;2023-05-07T06:58:26;4.80;;;4.40;;
33162;SDS011;29282;45.656;11.302;2023-05-07T07:00:51;4.80;;;4.03;;
33162;SDS011;29282;45.656;11.302;2023-05-07T07:03:17;4.05;;;3.75;;
33162;SDS011;29282;45.656;11.302;2023-05-07T07:05:42;4.78;;;4.28;;
33162;SDS011;29282;45.656;11.302;2023-05-07T07:08:08;4.50;;;4.10;;
33162;SDS011;29282;45.656;11.302;2023-05-07T07:10:34;4.78;;;4.25;;
33162;SDS011;29282;45.656;11.302;2023-05-07T07:13:00;4.80;;;4.40;;
33162;SDS011;29282;45.656;11.302;2023-05-07T07:15:25;5.45;;;4.60;;
33162;SDS011;29282;45.656;11.302;2023-05-07T07:17:51;4.85;;;4.18;;
33162;SDS011;29282;45.656;11.302;2023-05-07T07:20:19;4.53;;;4.15;;
33162;SDS011;29282;45.656;11.302;2023-05-07T07:22:45;4.82;;;4.43;;
33162;SDS011;29282;45.656;11.302;2023-05-07T07:25:10;4.72;;;4.18;;
33162;SDS011;29282;45.656;11.302;2023-05-07T07:27:36;4.57;;;4.18;;
33162;SDS011;29282;45.656;11.302;2023-05-07T07:30:02;5.25;;;4.70;;
33162;SDS011;29282;45.656;11.302;2023-05-07T07:32:28;4.53;;;4.13;;
33162;SDS011;29282;45.656;11.302;2023-05-07T07:34:54;4.50;;;4.20;;
33162;SDS011;29282;45.656;11.302;2023-05-07T07:37:19;4.50;;;4.10;;
33162;SDS011;29282;45.656;11.302;2023-05-07T07:39:45;4.68;;;4.28;;
33162;SDS011;29282;45.656;11.302;2023-05-07T07:42:10;4.40;;;4.03;;
33162;SDS011;29282;45.656;11.302;2023-05-07T07:44:36;4.85;;;4.40;;
33162;SDS011;29282;45.656;11.302;2023-05-07T07:47:01;5.95;;;4.22;;
33162;SDS011;29282;45.656;11.302;2023-05-07T07:49:27;4.47;;;3.83;;
33162;SDS011;29282;45.656;11.302;2023-05-07T07:51:52;4.90;;;4.40;;
33162;SDS011;29282;45.656;11.302;2023-05-07T07:54:18;4.22;;;3.83;;
33162;SDS011;29282;45.656;11.302;2023-05-07T07:56:43;5.13;;;4.07;;
33162;SDS011;29282;45.656;11.302;2023-05-07T07:59:09;4.20;;;3.90;;
33162;SDS011;29282;45.656;11.302;2023-05-07T08:01:35;4.40;;;4.10;;
33162;SDS011;29282;45.656;11.302;2023-05-07T08:04:00;4.00;;;3.70;;
33162;SDS011;29282;45.656;11.302;2023-05-07T08:06:33;4.80;;;4.40;;
33162;SDS011;29282;45.656;11.302;2023-05-07T08:08:59;4.57;;;4.18;;
33162;SDS011;29282;45.656;11.302;2023-05-07T08:11:24;4.80;;;4.40;;
33162;SDS011;29282;45.656;11.302;2023-05-07T08:13:50;4.65;;;4.25;;
33162;SDS011;29282;45.656;11.302;2023-05-07T08:16:15;4.10;;;3.80;;
33162;SDS011;29282;45.656;11.302;2023-05-07T08:18:41;5.60;;;4.32;;
33162;SDS011;29282;45.656;11.302;2023-05-07T08:21:06;4.85;;;4.40;;
33162;SDS011;29282;45.656;11.302;2023-05-07T08:23:32;6.43;;;4.05;;
33162;SDS011;29282;45.656;11.302;2023-05-07T08:25:59;5.05;;;4.28;;
33162;SDS011;29282;45.656;11.302;2023-05-07T08:28:25;4.95;;;4.53;;
33162;SDS011;29282;45.656;11.302;2023-05-07T08:30:50;6.10;;;4.32;;
33162;SDS011;29282;45.656;11.302;2023-05-07T08:33:19;4.22;;;3.85;;
33162;SDS011;29282;45.656;11.302;2023-05-07T08:35:44;4.60;;;4.20;;
33162;SDS011;29282;45.656;11.302;2023-05-07T08:38:10;5.20;;;4.40;;
33162;SDS011;29282;45.656;11.302;2023-05-07T08:40:38;4.40;;;4.00;;
33162;SDS011;29282;45.656;11.302;2023-05-07T08:43:06;7.80;;;4.00;;
33162;SDS011;29282;45.656;11.302;2023-05-07T08:45:32;5.63;;;4.22;;
33162;SDS011;29282;45.656;11.302;2023-05-07T08:47:59;6.85;;;4.68;;
33162;SDS011;29282;45.656;11.302;2023-05-07T08:50:27;5.07;;;4.32;;
33162;SDS011;29282;45.656;11.302;2023-05-07T08:52:53;5.95;;;4.22;;
33162;SDS011;29282;45.656;11.302;2023-05-07T08:55:18;5.78;;;4.68;;
33162;SDS011;29282;45.656;11.302;2023-05-07T08:57:45;8.13;;;4.38;;
33162;SDS011;29282;45.656;11.302;2023-05-07T09:00:11;4.78;;;3.90;;
33162;SDS011;29282;45.656;11.302;2023-05-07T09:02:37;8.68;;;5.18;;
33162;SDS011;29282;45.656;11.302;2023-05-07T09:05:03;5.47;;;4.97;;
33162;SDS011;29282;45.656;11.302;2023-05-07T09:07:30;7.78;;;4.80;;
33162;SDS011;29282;45.656;11.302;2023-05-07T09:09:56;6.65;;;4.13;;
33162;SDS011;29282;45.656;11.302;2023-05-07T09:12:22;5.75;;;4.80;;
33162;SDS011;29282;45.656;11.302;2023-05-07T09:14:48;7.18;;;4.80;;
33162;SDS011;29282;45.656;11.302;2023-05-07T09:17:17;8.75;;;4.35;;
33162;SDS011;29282;45.656;11.302;2023-05-07T09:19:44;8.00;;;4.75;;
33162;SDS011;29282;45.656;11.302;2023-05-07T09:22:10;5.68;;;4.85;;
33162;SDS011;29282;45.656;11.302;2023-05-07T09:24:36;7.22;;;4.88;;
33162;SDS011;29282;45.656;11.302;2023-05-07T09:27:06;9.10;;;5.03;;
33162;SDS011;29282;45.656;11.302;2023-05-07T09:29:33;8.23;;;5.25;;
33162;SDS011;29282;45.656;11.302;2023-05-07T09:32:07;9.15;;;4.55;;
33162;SDS011;29282;45.656;11.302;2023-05-07T09:34:34;9.10;;;4.88;;
33162;SDS011;29282;45.656;11.302;2023-05-07T09:37:00;8.77;;;4.25;;
33162;SDS011;29282;45.656;11.302;2023-05-07T09:39:45;19.05;;;5.43;;
33162;SDS011;29282;45.656;11.302;2023-05-07T09:42:12;13.80;;;5.45;;
33162;SDS011;29282;45.656;11.302;2023-05-07T09:44:40;11.35;;;5.32;;
33162;SDS011;29282;45.656;11.302;2023-05-07T09:47:07;11.48;;;5.35;;
33162;SDS011;29282;45.656;11.302;2023-05-07T09:49:36;14.18;;;5.43;;
33162;SDS011;29282;45.656;11.302;2023-05-07T09:52:05;9.38;;;5.32;;
33162;SDS011;29282;45.656;11.302;2023-05-07T09:54:33;10.50;;;5.25;;
33162;SDS011;29282;45.656;11.302;2023-05-07T09:57:02;8.32;;;4.88;;
33162;SDS011;29282;45.656;11.302;2023-05-07T09:59:29;9.05;;;5.10;;
33162;SDS011;29282;45.656;11.302;2023-05-07T10:01:59;9.95;;;4.63;;
33162;SDS011;29282;45.656;11.302;2023-05-07T10:04:26;10.57;;;5.20;;
33162;SDS011;29282;45.656;11.302;2023-05-07T10:06:52;8.45;;;5.28;;
33162;SDS011;29282;45.656;11.302;2023-05-07T10:09:19;9.27;;;5.03;;
33162;SDS011;29282;45.656;11.302;2023-05-07T10:11:45;8.88;;;5.13;;
33162;SDS011;29282;45.656;11.302;2023-05-07T10:14:14;11.15;;;4.90;;
33162;SDS011;29282;45.656;11.302;2023-05-07T10:16:39;6.28;;;4.50;;
33162;SDS011;29282;45.656;11.302;2023-05-07T10:19:06;14.95;;;5.63;;
33162;SDS011;29282;45.656;11.302;2023-05-07T10:21:35;12.90;;;5.03;;
33162;SDS011;29282;45.656;11.302;2023-05-07T10:24:07;12.68;;;6.20;;
33162;SDS011;29282;45.656;11.302;2023-05-07T10:26:39;13.95;;;5.38;;
33162;SDS011;29282;45.656;11.302;2023-05-07T10:35:06;15.77;;;5.50;;
33162;SDS011;29282;45.656;11.302;2023-05-07T10:37:42;12.45;;;5.47;;
33162;SDS011;29282;45.656;11.302;2023-05-07T10:40:09;10.90;;;5.07;;
33162;SDS011;29282;45.656;11.302;2023-05-07T10:42:35;11.25;;;5.50;;
33162;SDS011;29282;45.656;11.302;2023-05-07T10:45:13;9.35;;;5.82;;
33162;SDS011;29282;45.656;11.302;2023-05-07T10:50:35;14.45;;;5.55;;
33162;SDS011;29282;45.656;11.302;2023-05-07T10:56:23;13.65;;;5.32;;
33162;SDS011;29282;45.656;11.302;2023-05-07T10:58:43;12.25;;;5.93;;
33162;SDS011;29282;45.656;11.302;2023-05-07T11:01:09;11.82;;;5.65;;
33162;SDS011;29282;45.656;11.302;2023-05-07T11:03:36;13.85;;;5.78;;
33162;SDS011;29282;45.656;11.302;2023-05-07T11:06:40;11.88;;;5.53;;
33162;SDS011;29282;45.656;11.302;2023-05-07T11:09:06;15.98;;;5.97;;
33162;SDS011;29282;45.656;11.302;2023-05-07T11:11:47;9.48;;;5.15;;
33162;SDS011;29282;45.656;11.302;2023-05-07T11:17:06;10.85;;;5.70;;
33162;SDS011;29282;45.656;11.302;2023-05-07T11:19:51;9.93;;;5.63;;
33162;SDS011;29282;45.656;11.302;2023-05-07T11:25:02;9.68;;;5.82;;
33162;SDS011;29282;45.656;11.302;2023-05-07T11:27:28;13.18;;;5.22;;
33162;SDS011;29282;45.656;11.302;2023-05-07T11:29:55;12.32;;;5.30;;
33162;SDS011;29282;45.656;11.302;2023-05-07T11:32:27;10.05;;;6.05;;
33162;SDS011;29282;45.656;11.302;2023-05-07T11:34:54;13.93;;;5.25;;
33162;SDS011;29282;45.656;11.302;2023-05-07T11:37:20;10.77;;;5.13;;
33162;SDS011;29282;45.656;11.302;2023-05-07T11:39:47;7.85;;;5.60;;
33162;SDS011;29282;45.656;11.302;2023-05-07T11:42:29;12.07;;;5.45;;
33162;SDS011;29282;45.656;11.302;2023-05-07T11:44:56;8.90;;;5.68;;
33162;SDS011;29282;45.656;11.302;2023-05-07T11:47:22;9.50;;;5.32;;
33162;SDS011;29282;45.656;11.302;2023-05-07T11:49:47;13.35;;;4.95;;
33162;SDS011;29282;45.656;11.302;2023-05-07T11:52:14;12.23;;;6.00;;
33162;SDS011;29282;45.656;11.302;2023-05-07T11:54:41;10.15;;;5.15;;
33162;SDS011;29282;45.656;11.302;2023-05-07T11:57:06;11.85;;;5.35;;
33162;SDS011;29282;45.656;11.302;2023-05-07T11:59:39;8.20;;;5.43;;
33162;SDS011;29282;45.656;11.302;2023-05-07T12:02:05;10.95;;;5.60;;
33162;SDS011;29282;45.656;11.302;2023-05-07T12:04:31;9.98;;;5.28;;
33162;SDS011;29282;45.656;11.302;2023-05-07T12:06:57;7.50;;;5.00;;
33162;SDS011;29282;45.656;11.302;2023-05-07T12:09:26;9.65;;;5.15;;
33162;SDS011;29282;45.656;11.302;2023-05-07T12:11:51;7.95;;;5.22;;
33162;SDS011;29282;45.656;11.302;2023-05-07T12:14:17;8.25;;;5.13;;
33162;SDS011;29282;45.656;11.302;2023-05-07T12:16:43;8.13;;;4.90;;
33162;SDS011;29282;45.656;11.302;2023-05-07T12:19:10;6.95;;;4.80;;
33162;SDS011;29282;45.656;11.302;2023-05-07T12:21:39;11.10;;;4.90;;
33162;SDS011;29282;45.656;11.302;2023-05-07T12:24:05;10.27;;;5.18;;
33162;SDS011;29282;45.656;11.302;2023-05-07T12:26:30;8.52;;;5.28;;
33162;SDS011;29282;45.656;11.302;2023-05-07T12:28:59;10.07;;;5.40;;
33162;SDS011;29282;45.656;11.302;2023-05-07T12:31:27;7.53;;;5.35;;
33162;SDS011;29282;45.656;11.302;2023-05-07T12:33:53;10.30;;;5.10;;
33162;SDS011;29282;45.656;11.302;2023-05-07T12:36:18;10.43;;;5.60;;
33162;SDS011;29282;45.656;11.302;2023-05-07T12:38:46;8.82;;;4.93;;
33162;SDS011;29282;45.656;11.302;2023-05-07T12:41:15;10.20;;;5.18;;
33162;SDS011;29282;45.656;11.302;2023-05-07T12:43:43;7.95;;;5.00;;
33162;SDS011;29282;45.656;11.302;2023-05-07T12:46:10;7.15;;;4.65;;
33162;SDS011;29282;45.656;11.302;2023-05-07T12:48:38;10.65;;;4.90;;
33162;SDS011;29282;45.656;11.302;2023-05-07T12:51:10;10.05;;;5.47;;
33162;SDS011;29282;45.656;11.302;2023-05-07T12:53:41;10.82;;;5.10;;
33162;SDS011;29282;45.656;11.302;2023-05-07T12:56:07;7.57;;;4.95;;
33162;SDS011;29282;45.656;11.302;2023-05-07T12:58:33;8.27;;;5.22;;
33162;SDS011;29282;45.656;11.302;2023-05-07T13:01:03;7.85;;;4.82;;
33162;SDS011;29282;45.656;11.302;2023-05-07T13:03:31;6.95;;;4.90;;
33162;SDS011;29282;45.656;11.302;2023-05-07T13:05:59;8.13;;;4.50;;
33162;SDS011;29282;45.656;11.302;2023-05-07T13:10:57;8.38;;;5.43;;
33162;SDS011;29282;45.656;11.302;2023-05-07T13:13:24;10.30;;;4.65;;
33162;SDS011;29282;45.656;11.302;2023-05-07T13:15:50;10.52;;;4.72;;
33162;SDS011;29282;45.656;11.302;2023-05-07T13:18:16;9.55;;;4.63;;
33162;SDS011;29282;45.656;11.302;2023-05-07T13:20:42;8.60;;;4.88;;
33162;SDS011;29282;45.656;11.302;2023-05-07T13:23:09;8.57;;;5.15;;
33162;SDS011;29282;45.656;11.302;2023-05-07T13:25:34;7.18;;;4.55;;
33162;SDS011;29282;45.656;11.302;2023-05-07T13:28:02;8.68;;;4.80;;
33162;SDS011;29282;45.656;11.302;2023-05-07T13:30:29;7.85;;;4.40;;
33162;SDS011;29282;45.656;11.302;2023-05-07T13:32:55;9.88;;;4.93;;
33162;SDS011;29282;45.656;11.302;2023-05-07T13:35:21;9.43;;;4.50;;
33162;SDS011;29282;45.656;11.302;2023-05-07T13:37:47;9.18;;;4.82;;
33162;SDS011;29282;45.656;11.302;2023-05-07T13:40:17;6.35;;;4.65;;
33162;SDS011;29282;45.656;11.302;2023-05-07T13:42:42;7.50;;;4.57;;
33162;SDS011;29282;45.656;11.302;2023-05-07T13:45:08;7.57;;;5.30;;
33162;SDS011;29282;45.656;11.302;2023-05-07T13:47:34;8.00;;;4.57;;
33162;SDS011;29282;45.656;11.302;2023-05-07T13:50:00;6.03;;;4.30;;
33162;SDS011;29282;45.656;11.302;2023-05-07T13:52:25;10.63;;;5.35;;
33162;SDS011;29282;45.656;11.302;2023-05-07T13:54:51;8.50;;;4.80;;
33162;SDS011;29282;45.656;11.302;2023-05-07T13:57:17;10.32;;;5.00;;
33162;SDS011;29282;45.656;11.302;2023-05-07T13:59:43;7.07;;;4.90;;
33162;SDS011;29282;45.656;11.302;2023-05-07T14:02:08;13.15;;;5.15;;
33162;SDS011;29282;45.656;11.302;2023-05-07T14:04:34;7.50;;;4.65;;
33162;SDS011;29282;45.656;11.302;2023-05-07T14:06:59;8.77;;;5.20;;
33162;SDS011;29282;45.656;11.302;2023-05-07T14:09:25;11.65;;;5.43;;
33162;SDS011;29282;45.656;11.302;2023-05-07T14:11:50;10.38;;;5.30;;
33162;SDS011;29282;45.656;11.302;2023-05-07T14:14:17;8.05;;;4.88;;
33162;SDS011;29282;45.656;11.302;2023-05-07T14:16:43;11.02;;;5.50;;
33162;SDS011;29282;45.656;11.302;2023-05-07T14:19:09;9.85;;;5.32;;
33162;SDS011;29282;45.656;11.302;2023-05-07T14:21:35;10.05;;;5.20;;
33162;SDS011;29282;45.656;11.302;2023-05-07T14:24:05;18.25;;;5.40;;
33162;SDS011;29282;45.656;11.302;2023-05-07T14:26:32;19.15;;;5.93;;
33162;SDS011;29282;45.656;11.302;2023-05-07T14:28:57;21.38;;;6.70;;
33162;SDS011;29282;45.656;11.302;2023-05-07T14:31:23;25.02;;;6.50;;
33162;SDS011;29282;45.656;11.302;2023-05-07T14:33:49;18.58;;;7.10;;
33162;SDS011;29282;45.656;11.302;2023-05-07T14:36:15;14.57;;;6.15;;
33162;SDS011;29282;45.656;11.302;2023-05-07T14:38:47;22.60;;;6.10;;
33162;SDS011;29282;45.656;11.302;2023-05-07T14:41:13;16.08;;;5.85;;
33162;SDS011;29282;45.656;11.302;2023-05-07T14:43:39;15.75;;;5.35;;
33162;SDS011;29282;45.656;11.302;2023-05-07T14:46:05;21.48;;;6.50;;
33162;SDS011;29282;45.656;11.302;2023-05-07T14:48:30;23.30;;;6.78;;
33162;SDS011;29282;45.656;11.302;2023-05-07T14:50:56;30.27;;;6.90;;